sensor_id;sensor_type;location;lat;lon;timestamp;P1;durP1;ratioP1;P2;durP2;ratioP2
1360;SDS011;674;45.552;-122.600;2022-09-09T00:04:57;3.83;;;1.83;;
1360;SDS011;674;45.552;-122.600;2022-09-09T00:07:36;5.83;;;1.60;;
1360;SDS011;674;45.552;-122.600;2022-09-09T00:10:16;6.70;;;1.40;;
1360;SDS011;674;45.552;-122.600;2022-09-09T00:16:17;6.00;;;1.80;;
1360;SDS011;674;45.552;-122.600;2022-09-09T00:21:36;4.83;;;1.30;;
1360;SDS011;674;45.552;-122.600;2022-09-09T00:24:29;8.23;;;1.80;;
1360;SDS011;674;45.552;-122.600;2022-09-09T00:27:26;6.93;;;1.30;;
1360;SDS011;674;45.552;-122.600;2022-09-09T00:30:13;4.00;;;1.30;;
1360;SDS011;674;45.552;-122.600;2022-09-09T00:33:12;5.37;;;1.23;;
1360;SDS011;674;45.552;-122.600;2022-09-09T00:35:47;3.57;;;1.60;;
1360;SDS011;674;45.552;-122.600;2022-09-09T00:38:24;3.37;;;1.40;;
1360;SDS011;674;45.552;-122.600;2022-09-09T00:43:46;6.53;;;2.00;;
1360;SDS011;674;45.552;-122.600;2022-09-09T00:49:04;8.40;;;1.67;;
1360;SDS011;674;45.552;-122.600;2022-09-09T00:54:28;4.20;;;1.50;;
1360;SDS011;674;45.552;-122.600;2022-09-09T00:57:16;3.90;;;1.30;;
1360;SDS011;674;45.552;-122.600;2022-09-09T01:02:55;5.20;;;1.70;;
1360;SDS011;674;45.552;-122.600;2022-09-09T01:05:45;4.10;;;1.50;;
1360;SDS011;674;45.552;-122.600;2022-09-09T01:11:14;3.30;;;1.30;;
1360;SDS011;674;45.552;-122.600;2022-09-09T01:29:09;3.33;;;1.20;;
1360;SDS011;674;45.552;-122.600;2022-09-09T01:32:37;4.30;;;1.70;;
1360;SDS011;674;45.552;-122.600;2022-09-09T01:34:49;6.03;;;2.33;;
1360;SDS011;674;45.552;-122.600;2022-09-09T01:37:18;4.77;;;1.23;;
1360;SDS011;674;45.552;-122.600;2022-09-09T01:39:47;4.57;;;1.50;;
1360;SDS011;674;45.552;-122.600;2022-09-09T01:42:15;3.77;;;1.80;;
1360;SDS011;674;45.552;-122.600;2022-09-09T01:44:44;3.50;;;1.43;;
1360;SDS011;674;45.552;-122.600;2022-09-09T01:47:14;5.43;;;1.40;;
1360;SDS011;674;45.552;-122.600;2022-09-09T01:49:42;4.53;;;1.83;;
1360;SDS011;674;45.552;-122.600;2022-09-09T01:52:11;6.30;;;3.13;;
1360;SDS011;674;45.552;-122.600;2022-09-09T01:54:39;4.90;;;1.40;;
1360;SDS011;674;45.552;-122.600;2022-09-09T02:03:00;8.57;;;1.80;;
1360;SDS011;674;45.552;-122.600;2022-09-09T02:05:37;8.27;;;1.73;;
1360;SDS011;674;45.552;-122.600;2022-09-09T02:10:50;4.07;;;1.50;;
1360;SDS011;674;45.552;-122.600;2022-09-09T02:13:21;4.87;;;1.50;;
1360;SDS011;674;45.552;-122.600;2022-09-09T02:15:58;5.33;;;1.67;;
1360;SDS011;674;45.552;-122.600;2022-09-09T02:18:38;2.93;;;1.37;;
1360;SDS011;674;45.552;-122.600;2022-09-09T02:21:27;3.70;;;1.70;;
1360;SDS011;674;45.552;-122.600;2022-09-09T02:23:58;6.57;;;1.70;;
1360;SDS011;674;45.552;-122.600;2022-09-09T02:26:32;2.53;;;1.20;;
1360;SDS011;674;45.552;-122.600;2022-09-09T02:29:03;4.00;;;1.63;;
1360;SDS011;674;45.552;-122.600;2022-09-09T02:31:37;4.50;;;1.80;;
1360;SDS011;674;45.552;-122.600;2022-09-09T02:34:06;4.53;;;2.00;;
1360;SDS011;674;45.552;-122.600;2022-09-09T02:36:38;4.10;;;1.93;;
1360;SDS011;674;45.552;-122.600;2022-09-09T02:39:10;6.07;;;2.70;;
1360;SDS011;674;45.552;-122.600;2022-09-09T02:41:40;9.20;;;2.07;;
1360;SDS011;674;45.552;-122.600;2022-09-09T02:44:16;7.97;;;2.20;;
1360;SDS011;674;45.552;-122.600;2022-09-09T02:58:22;6.13;;;3.43;;
1360;SDS011;674;45.552;-122.600;2022-09-09T03:00:51;6.57;;;2.73;;
1360;SDS011;674;45.552;-122.600;2022-09-09T03:03:20;5.20;;;2.83;;
1360;SDS011;674;45.552;-122.600;2022-09-09T03:05:49;5.90;;;2.90;;
1360;SDS011;674;45.552;-122.600;2022-09-09T03:08:17;3.83;;;2.30;;
1360;SDS011;674;45.552;-122.600;2022-09-09T03:10:46;4.03;;;2.30;;
1360;SDS011;674;45.552;-122.600;2022-09-09T03:13:14;6.90;;;3.43;;
1360;SDS011;674;45.552;-122.600;2022-09-09T03:15:43;6.40;;;3.23;;
1360;SDS011;674;45.552;-122.600;2022-09-09T03:18:12;4.80;;;2.30;;
1360;SDS011;674;45.552;-122.600;2022-09-09T03:20:41;8.60;;;2.60;;
1360;SDS011;674;45.552;-122.600;2022-09-09T03:23:10;2.40;;;1.90;;
1360;SDS011;674;45.552;-122.600;2022-09-09T03:25:47;6.23;;;3.00;;
1360;SDS011;674;45.552;-122.600;2022-09-09T03:28:20;5.20;;;2.23;;
1360;SDS011;674;45.552;-122.600;2022-09-09T03:30:50;4.97;;;2.13;;
1360;SDS011;674;45.552;-122.600;2022-09-09T03:33:19;4.83;;;1.90;;
1360;SDS011;674;45.552;-122.600;2022-09-09T03:35:47;5.47;;;2.30;;
1360;SDS011;674;45.552;-122.600;2022-09-09T03:38:15;8.10;;;2.30;;
1360;SDS011;674;45.552;-122.600;2022-09-09T03:40:51;4.30;;;2.13;;
1360;SDS011;674;45.552;-122.600;2022-09-09T03:43:26;4.80;;;1.77;;
1360;SDS011;674;45.552;-122.600;2022-09-09T03:45:55;5.83;;;2.60;;
1360;SDS011;674;45.552;-122.600;2022-09-09T03:48:27;5.53;;;1.70;;
1360;SDS011;674;45.552;-122.600;2022-09-09T03:50:56;3.33;;;1.90;;
1360;SDS011;674;45.552;-122.600;2022-09-09T03:53:28;7.77;;;2.53;;
1360;SDS011;674;45.552;-122.600;2022-09-09T03:55:57;3.43;;;2.27;;
1360;SDS011;674;45.552;-122.600;2022-09-09T03:58:26;3.03;;;2.20;;
1360;SDS011;674;45.552;-122.600;2022-09-09T04:00:56;6.73;;;1.80;;
1360;SDS011;674;45.552;-122.600;2022-09-09T04:03:30;4.70;;;1.70;;
1360;SDS011;674;45.552;-122.600;2022-09-09T04:06:00;6.27;;;1.73;;
1360;SDS011;674;45.552;-122.600;2022-09-09T04:08:30;3.10;;;1.70;;
1360;SDS011;674;45.552;-122.600;2022-09-09T04:11:00;4.43;;;1.70;;
1360;SDS011;674;45.552;-122.600;2022-09-09T04:13:33;5.00;;;1.70;;
1360;SDS011;674;45.552;-122.600;2022-09-09T04:16:04;6.87;;;1.63;;
1360;SDS011;674;45.552;-122.600;2022-09-09T04:18:35;5.77;;;1.87;;
1360;SDS011;674;45.552;-122.600;2022-09-09T04:21:04;3.20;;;1.60;;
1360;SDS011;674;45.552;-122.600;2022-09-09T04:23:35;2.10;;;1.10;;
1360;SDS011;674;45.552;-122.600;2022-09-09T04:26:04;3.50;;;1.60;;
1360;SDS011;674;45.552;-122.600;2022-09-09T04:28:35;3.40;;;1.47;;
1360;SDS011;674;45.552;-122.600;2022-09-09T04:31:05;2.27;;;1.63;;
1360;SDS011;674;45.552;-122.600;2022-09-09T04:33:39;5.53;;;1.50;;
1360;SDS011;674;45.552;-122.600;2022-09-09T04:36:08;5.83;;;1.43;;
1360;SDS011;674;45.552;-122.600;2022-09-09T04:38:36;2.47;;;1.23;;
1360;SDS011;674;45.552;-122.600;2022-09-09T04:41:05;2.83;;;1.00;;
1360;SDS011;674;45.552;-122.600;2022-09-09T04:43:34;3.90;;;1.20;;
1360;SDS011;674;45.552;-122.600;2022-09-09T04:46:03;3.83;;;1.23;;
1360;SDS011;674;45.552;-122.600;2022-09-09T04:48:31;3.03;;;1.20;;
1360;SDS011;674;45.552;-122.600;2022-09-09T04:51:04;4.47;;;1.43;;
1360;SDS011;674;45.552;-122.600;2022-09-09T04:53:33;4.37;;;1.10;;
1360;SDS011;674;45.552;-122.600;2022-09-09T04:56:09;3.83;;;1.13;;
1360;SDS011;674;45.552;-122.600;2022-09-09T04:58:39;6.60;;;2.73;;
1360;SDS011;674;45.552;-122.600;2022-09-09T05:01:19;3.67;;;1.67;;
1360;SDS011;674;45.552;-122.600;2022-09-09T05:03:51;8.40;;;1.40;;
1360;SDS011;674;45.552;-122.600;2022-09-09T05:06:20;3.50;;;1.10;;
1360;SDS011;674;45.552;-122.600;2022-09-09T05:08:49;2.37;;;1.20;;
1360;SDS011;674;45.552;-122.600;2022-09-09T05:13:51;3.30;;;1.40;;
1360;SDS011;674;45.552;-122.600;2022-09-09T05:16:20;2.97;;;1.40;;
1360;SDS011;674;45.552;-122.600;2022-09-09T05:18:50;3.00;;;1.40;;
1360;SDS011;674;45.552;-122.600;2022-09-09T05:21:19;3.40;;;1.30;;
1360;SDS011;674;45.552;-122.600;2022-09-09T05:23:50;2.90;;;1.07;;
1360;SDS011;674;45.552;-122.600;2022-09-09T05:26:19;3.60;;;1.37;;
1360;SDS011;674;45.552;-122.600;2022-09-09T05:28:48;5.87;;;1.17;;
1360;SDS011;674;45.552;-122.600;2022-09-09T05:31:17;1.80;;;1.07;;
1360;SDS011;674;45.552;-122.600;2022-09-09T05:33:47;3.00;;;1.20;;
1360;SDS011;674;45.552;-122.600;2022-09-09T05:36:17;2.33;;;1.30;;
1360;SDS011;674;45.552;-122.600;2022-09-09T05:38:47;3.40;;;1.13;;
1360;SDS011;674;45.552;-122.600;2022-09-09T05:41:17;6.10;;;1.03;;
1360;SDS011;674;45.552;-122.600;2022-09-09T05:43:47;2.40;;;1.23;;
1360;SDS011;674;45.552;-122.600;2022-09-09T05:46:19;4.93;;;1.10;;
1360;SDS011;674;45.552;-122.600;2022-09-09T05:48:49;8.33;;;1.90;;
1360;SDS011;674;45.552;-122.600;2022-09-09T05:51:20;2.90;;;0.90;;
1360;SDS011;674;45.552;-122.600;2022-09-09T05:53:50;3.00;;;1.20;;
1360;SDS011;674;45.552;-122.600;2022-09-09T05:56:20;2.23;;;1.30;;
1360;SDS011;674;45.552;-122.600;2022-09-09T05:58:52;4.53;;;1.33;;
1360;SDS011;674;45.552;-122.600;2022-09-09T06:01:23;4.67;;;1.23;;
1360;SDS011;674;45.552;-122.600;2022-09-09T06:03:56;2.50;;;1.00;;
1360;SDS011;674;45.552;-122.600;2022-09-09T06:06:25;4.40;;;1.30;;
1360;SDS011;674;45.552;-122.600;2022-09-09T06:08:57;2.37;;;1.30;;
1360;SDS011;674;45.552;-122.600;2022-09-09T06:11:27;4.70;;;1.43;;
1360;SDS011;674;45.552;-122.600;2022-09-09T06:13:59;3.93;;;1.60;;
1360;SDS011;674;45.552;-122.600;2022-09-09T06:16:29;3.07;;;1.30;;
1360;SDS011;674;45.552;-122.600;2022-09-09T06:18:59;3.77;;;1.30;;
1360;SDS011;674;45.552;-122.600;2022-09-09T06:21:31;4.70;;;1.07;;
1360;SDS011;674;45.552;-122.600;2022-09-09T06:24:01;2.30;;;1.00;;
1360;SDS011;674;45.552;-122.600;2022-09-09T06:26:37;2.83;;;1.30;;
1360;SDS011;674;45.552;-122.600;2022-09-09T06:29:10;2.57;;;1.47;;
1360;SDS011;674;45.552;-122.600;2022-09-09T06:31:38;4.90;;;1.20;;
1360;SDS011;674;45.552;-122.600;2022-09-09T06:34:08;2.23;;;1.30;;
1360;SDS011;674;45.552;-122.600;2022-09-09T06:36:37;3.17;;;1.30;;
1360;SDS011;674;45.552;-122.600;2022-09-09T06:39:06;8.20;;;1.40;;
1360;SDS011;674;45.552;-122.600;2022-09-09T06:41:40;2.17;;;1.20;;
1360;SDS011;674;45.552;-122.600;2022-09-09T06:44:09;4.03;;;1.53;;
1360;SDS011;674;45.552;-122.600;2022-09-09T06:46:39;2.60;;;1.47;;
1360;SDS011;674;45.552;-122.600;2022-09-09T06:49:10;3.70;;;1.63;;
1360;SDS011;674;45.552;-122.600;2022-09-09T06:51:39;3.77;;;1.60;;
1360;SDS011;674;45.552;-122.600;2022-09-09T06:54:11;3.07;;;1.30;;
1360;SDS011;674;45.552;-122.600;2022-09-09T06:56:40;4.33;;;1.33;;
1360;SDS011;674;45.552;-122.600;2022-09-09T06:59:10;5.50;;;1.50;;
1360;SDS011;674;45.552;-122.600;2022-09-09T07:01:40;2.73;;;1.20;;
1360;SDS011;674;45.552;-122.600;2022-09-09T07:04:10;2.83;;;1.50;;
1360;SDS011;674;45.552;-122.600;2022-09-09T07:06:44;3.10;;;1.10;;
1360;SDS011;674;45.552;-122.600;2022-09-09T07:09:14;4.27;;;1.70;;
1360;SDS011;674;45.552;-122.600;2022-09-09T07:11:44;4.83;;;1.40;;
1360;SDS011;674;45.552;-122.600;2022-09-09T07:14:15;4.10;;;1.60;;
1360;SDS011;674;45.552;-122.600;2022-09-09T07:16:44;3.00;;;1.40;;
1360;SDS011;674;45.552;-122.600;2022-09-09T07:19:13;2.60;;;1.30;;
1360;SDS011;674;45.552;-122.600;2022-09-09T07:21:42;3.93;;;1.50;;
1360;SDS011;674;45.552;-122.600;2022-09-09T07:24:11;4.97;;;1.50;;
1360;SDS011;674;45.552;-122.600;2022-09-09T07:26:39;3.60;;;1.50;;
1360;SDS011;674;45.552;-122.600;2022-09-09T07:29:08;5.03;;;1.47;;
1360;SDS011;674;45.552;-122.600;2022-09-09T07:31:41;3.63;;;1.50;;
1360;SDS011;674;45.552;-122.600;2022-09-09T07:34:09;6.10;;;1.77;;
1360;SDS011;674;45.552;-122.600;2022-09-09T07:36:39;3.40;;;1.60;;
1360;SDS011;674;45.552;-122.600;2022-09-09T07:39:10;4.80;;;1.97;;
1360;SDS011;674;45.552;-122.600;2022-09-09T07:41:41;2.70;;;1.53;;
1360;SDS011;674;45.552;-122.600;2022-09-09T07:44:15;5.97;;;2.00;;
1360;SDS011;674;45.552;-122.600;2022-09-09T07:46:45;4.07;;;1.97;;
1360;SDS011;674;45.552;-122.600;2022-09-09T07:49:14;4.00;;;1.70;;
1360;SDS011;674;45.552;-122.600;2022-09-09T07:51:46;3.80;;;1.47;;
1360;SDS011;674;45.552;-122.600;2022-09-09T07:54:17;3.70;;;1.60;;
1360;SDS011;674;45.552;-122.600;2022-09-09T07:56:50;3.20;;;1.67;;
1360;SDS011;674;45.552;-122.600;2022-09-09T07:59:19;3.93;;;1.27;;
1360;SDS011;674;45.552;-122.600;2022-09-09T08:01:49;3.73;;;1.43;;
1360;SDS011;674;45.552;-122.600;2022-09-09T08:04:22;5.50;;;1.77;;
1360;SDS011;674;45.552;-122.600;2022-09-09T08:06:55;2.33;;;1.57;;
1360;SDS011;674;45.552;-122.600;2022-09-09T08:09:25;3.93;;;1.70;;
1360;SDS011;674;45.552;-122.600;2022-09-09T08:11:56;4.60;;;1.40;;
1360;SDS011;674;45.552;-122.600;2022-09-09T08:14:25;4.53;;;1.70;;
1360;SDS011;674;45.552;-122.600;2022-09-09T08:16:54;4.93;;;1.23;;
1360;SDS011;674;45.552;-122.600;2022-09-09T08:19:23;3.60;;;1.43;;
1360;SDS011;674;45.552;-122.600;2022-09-09T08:21:51;2.70;;;1.23;;
1360;SDS011;674;45.552;-122.600;2022-09-09T08:24:21;7.93;;;2.00;;
1360;SDS011;674;45.552;-122.600;2022-09-09T08:26:50;3.50;;;1.63;;
1360;SDS011;674;45.552;-122.600;2022-09-09T08:29:19;4.63;;;1.77;;
1360;SDS011;674;45.552;-122.600;2022-09-09T08:31:57;2.83;;;1.43;;
1360;SDS011;674;45.552;-122.600;2022-09-09T08:34:26;3.03;;;1.47;;
1360;SDS011;674;45.552;-122.600;2022-09-09T08:36:55;5.07;;;1.77;;
1360;SDS011;674;45.552;-122.600;2022-09-09T08:39:23;5.20;;;1.70;;
1360;SDS011;674;45.552;-122.600;2022-09-09T08:47:21;3.77;;;1.87;;
1360;SDS011;674;45.552;-122.600;2022-09-09T08:55:50;4.60;;;1.90;;
1360;SDS011;674;45.552;-122.600;2022-09-09T08:58:30;4.30;;;2.07;;
1360;SDS011;674;45.552;-122.600;2022-09-09T09:11:58;5.87;;;2.00;;
1360;SDS011;674;45.552;-122.600;2022-09-09T09:14:30;5.53;;;1.90;;
1360;SDS011;674;45.552;-122.600;2022-09-09T09:17:11;5.23;;;2.00;;
1360;SDS011;674;45.552;-122.600;2022-09-09T09:19:52;6.53;;;2.33;;
1360;SDS011;674;45.552;-122.600;2022-09-09T09:22:33;5.33;;;1.87;;
1360;SDS011;674;45.552;-122.600;2022-09-09T09:25:11;4.50;;;2.40;;
1360;SDS011;674;45.552;-122.600;2022-09-09T09:30:18;5.53;;;2.17;;
1360;SDS011;674;45.552;-122.600;2022-09-09T09:32:58;4.23;;;2.43;;
1360;SDS011;674;45.552;-122.600;2022-09-09T09:35:36;8.27;;;2.80;;
1360;SDS011;674;45.552;-122.600;2022-09-09T09:38:19;3.13;;;1.90;;
1360;SDS011;674;45.552;-122.600;2022-09-09T09:41:09;7.73;;;2.20;;
1360;SDS011;674;45.552;-122.600;2022-09-09T09:43:40;4.80;;;2.10;;
1360;SDS011;674;45.552;-122.600;2022-09-09T09:46:21;5.00;;;2.73;;
1360;SDS011;674;45.552;-122.600;2022-09-09T09:49:03;4.93;;;2.50;;
1360;SDS011;674;45.552;-122.600;2022-09-09T09:51:33;4.60;;;2.63;;
1360;SDS011;674;45.552;-122.600;2022-09-09T09:54:06;4.73;;;2.63;;
1360;SDS011;674;45.552;-122.600;2022-09-09T09:56:50;4.17;;;2.77;;
1360;SDS011;674;45.552;-122.600;2022-09-09T09:59:19;3.87;;;2.60;;
1360;SDS011;674;45.552;-122.600;2022-09-09T10:04:44;6.70;;;2.90;;
1360;SDS011;674;45.552;-122.600;2022-09-09T10:07:20;5.93;;;2.60;;
1360;SDS011;674;45.552;-122.600;2022-09-09T10:09:52;6.47;;;2.60;;
1360;SDS011;674;45.552;-122.600;2022-09-09T10:15:25;5.50;;;3.30;;
1360;SDS011;674;45.552;-122.600;2022-09-09T10:18:18;6.43;;;2.80;;
1360;SDS011;674;45.552;-122.600;2022-09-09T10:20:54;7.37;;;3.47;;
1360;SDS011;674;45.552;-122.600;2022-09-09T10:23:39;5.53;;;3.50;;
1360;SDS011;674;45.552;-122.600;2022-09-09T10:26:32;3.60;;;2.73;;
1360;SDS011;674;45.552;-122.600;2022-09-09T10:37:41;5.80;;;3.23;;
1360;SDS011;674;45.552;-122.600;2022-09-09T10:49:18;5.33;;;3.40;;
1360;SDS011;674;45.552;-122.600;2022-09-09T10:54:47;4.23;;;3.20;;
1360;SDS011;674;45.552;-122.600;2022-09-09T11:00:04;7.43;;;3.43;;
1360;SDS011;674;45.552;-122.600;2022-09-09T11:05:34;5.67;;;3.03;;
1360;SDS011;674;45.552;-122.600;2022-09-09T11:08:14;6.90;;;4.17;;
1360;SDS011;674;45.552;-122.600;2022-09-09T11:11:14;3.93;;;2.70;;
1360;SDS011;674;45.552;-122.600;2022-09-09T11:17:06;7.00;;;3.80;;
1360;SDS011;674;45.552;-122.600;2022-09-09T11:19:46;5.60;;;3.30;;
1360;SDS011;674;45.552;-122.600;2022-09-09T11:42:20;9.43;;;3.67;;
1360;SDS011;674;45.552;-122.600;2022-09-09T11:44:51;6.20;;;3.00;;
1360;SDS011;674;45.552;-122.600;2022-09-09T11:52:41;7.43;;;3.70;;
1360;SDS011;674;45.552;-122.600;2022-09-09T11:55:26;6.97;;;3.43;;
1360;SDS011;674;45.552;-122.600;2022-09-09T12:00:42;5.20;;;3.70;;
1360;SDS011;674;45.552;-122.600;2022-09-09T12:06:16;10.00;;;4.10;;
1360;SDS011;674;45.552;-122.600;2022-09-09T12:09:12;7.30;;;3.93;;
1360;SDS011;674;45.552;-122.600;2022-09-09T12:11:53;7.60;;;4.10;;
1360;SDS011;674;45.552;-122.600;2022-09-09T12:14:37;8.70;;;4.30;;
1360;SDS011;674;45.552;-122.600;2022-09-09T12:17:24;4.53;;;3.27;;
1360;SDS011;674;45.552;-122.600;2022-09-09T12:22:51;13.20;;;4.90;;
1360;SDS011;674;45.552;-122.600;2022-09-09T12:28:24;7.63;;;4.30;;
1360;SDS011;674;45.552;-122.600;2022-09-09T12:31:15;6.40;;;4.30;;
1360;SDS011;674;45.552;-122.600;2022-09-09T12:34:13;6.70;;;4.50;;
1360;SDS011;674;45.552;-122.600;2022-09-09T12:36:43;7.33;;;4.40;;
1360;SDS011;674;45.552;-122.600;2022-09-09T12:39:33;7.13;;;3.63;;
1360;SDS011;674;45.552;-122.600;2022-09-09T12:42:18;8.27;;;4.70;;
1360;SDS011;674;45.552;-122.600;2022-09-09T12:44:51;9.30;;;4.93;;
1360;SDS011;674;45.552;-122.600;2022-09-09T12:47:34;9.27;;;4.43;;
1360;SDS011;674;45.552;-122.600;2022-09-09T12:50:26;7.17;;;5.00;;
1360;SDS011;674;45.552;-122.600;2022-09-09T12:53:02;7.50;;;4.70;;
1360;SDS011;674;45.552;-122.600;2022-09-09T12:55:38;7.20;;;4.10;;
1360;SDS011;674;45.552;-122.600;2022-09-09T12:58:07;9.13;;;4.30;;
1360;SDS011;674;45.552;-122.600;2022-09-09T13:00:48;8.63;;;4.63;;
1360;SDS011;674;45.552;-122.600;2022-09-09T13:03:20;9.07;;;4.70;;
1360;SDS011;674;45.552;-122.600;2022-09-09T13:05:49;6.70;;;4.00;;
1360;SDS011;674;45.552;-122.600;2022-09-09T13:08:18;8.13;;;5.10;;
1360;SDS011;674;45.552;-122.600;2022-09-09T13:13:36;6.17;;;4.30;;
1360;SDS011;674;45.552;-122.600;2022-09-09T13:16:07;11.17;;;4.90;;
1360;SDS011;674;45.552;-122.600;2022-09-09T13:19:09;6.90;;;5.10;;
1360;SDS011;674;45.552;-122.600;2022-09-09T13:21:42;10.60;;;4.33;;
1360;SDS011;674;45.552;-122.600;2022-09-09T13:27:04;5.47;;;3.70;;
1360;SDS011;674;45.552;-122.600;2022-09-09T13:29:52;9.87;;;4.13;;
1360;SDS011;674;45.552;-122.600;2022-09-09T13:32:22;5.57;;;4.30;;
1360;SDS011;674;45.552;-122.600;2022-09-09T13:34:58;7.43;;;4.20;;
1360;SDS011;674;45.552;-122.600;2022-09-09T13:37:33;6.80;;;3.77;;
1360;SDS011;674;45.552;-122.600;2022-09-09T13:40:06;6.57;;;3.90;;
1360;SDS011;674;45.552;-122.600;2022-09-09T13:42:45;6.10;;;4.20;;
1360;SDS011;674;45.552;-122.600;2022-09-09T13:45:20;6.93;;;4.60;;
1360;SDS011;674;45.552;-122.600;2022-09-09T13:47:51;9.60;;;4.50;;
1360;SDS011;674;45.552;-122.600;2022-09-09T13:50:23;10.93;;;4.43;;
1360;SDS011;674;45.552;-122.600;2022-09-09T13:52:56;6.57;;;4.13;;
1360;SDS011;674;45.552;-122.600;2022-09-09T13:55:26;10.10;;;5.03;;
1360;SDS011;674;45.552;-122.600;2022-09-09T13:57:57;6.90;;;4.30;;
1360;SDS011;674;45.552;-122.600;2022-09-09T14:00:30;6.07;;;4.10;;
1360;SDS011;674;45.552;-122.600;2022-09-09T14:03:01;6.97;;;4.13;;
1360;SDS011;674;45.552;-122.600;2022-09-09T14:05:31;9.03;;;4.40;;
1360;SDS011;674;45.552;-122.600;2022-09-09T14:08:03;6.53;;;4.03;;
1360;SDS011;674;45.552;-122.600;2022-09-09T14:10:33;7.30;;;4.73;;
1360;SDS011;674;45.552;-122.600;2022-09-09T14:13:04;4.50;;;3.60;;
1360;SDS011;674;45.552;-122.600;2022-09-09T14:15:33;14.17;;;5.17;;
1360;SDS011;674;45.552;-122.600;2022-09-09T14:18:01;7.50;;;4.50;;
1360;SDS011;674;45.552;-122.600;2022-09-09T14:20:30;6.73;;;4.23;;
1360;SDS011;674;45.552;-122.600;2022-09-09T14:22:59;6.33;;;4.03;;
1360;SDS011;674;45.552;-122.600;2022-09-09T14:25:29;11.73;;;4.50;;
1360;SDS011;674;45.552;-122.600;2022-09-09T14:27:58;6.37;;;3.93;;
1360;SDS011;674;45.552;-122.600;2022-09-09T14:30:26;7.97;;;4.33;;
1360;SDS011;674;45.552;-122.600;2022-09-09T14:32:55;9.60;;;4.30;;
1360;SDS011;674;45.552;-122.600;2022-09-09T14:35:23;7.07;;;4.23;;
1360;SDS011;674;45.552;-122.600;2022-09-09T14:37:52;6.43;;;3.90;;
1360;SDS011;674;45.552;-122.600;2022-09-09T14:40:20;7.47;;;4.30;;
1360;SDS011;674;45.552;-122.600;2022-09-09T14:42:48;8.93;;;4.23;;
1360;SDS011;674;45.552;-122.600;2022-09-09T14:45:17;9.87;;;4.67;;
1360;SDS011;674;45.552;-122.600;2022-09-09T14:47:45;9.70;;;4.93;;
1360;SDS011;674;45.552;-122.600;2022-09-09T14:50:13;9.83;;;4.40;;
1360;SDS011;674;45.552;-122.600;2022-09-09T14:52:42;8.13;;;4.33;;
1360;SDS011;674;45.552;-122.600;2022-09-09T14:55:10;9.33;;;4.23;;
1360;SDS011;674;45.552;-122.600;2022-09-09T14:57:39;14.67;;;4.90;;
1360;SDS011;674;45.552;-122.600;2022-09-09T15:00:09;7.67;;;4.53;;
1360;SDS011;674;45.552;-122.600;2022-09-09T15:02:38;12.43;;;4.10;;
1360;SDS011;674;45.552;-122.600;2022-09-09T15:05:07;9.70;;;4.30;;
1360;SDS011;674;45.552;-122.600;2022-09-09T15:07:36;8.10;;;4.53;;
1360;SDS011;674;45.552;-122.600;2022-09-09T15:10:05;6.90;;;4.63;;
1360;SDS011;674;45.552;-122.600;2022-09-09T15:12:34;7.77;;;3.77;;
1360;SDS011;674;45.552;-122.600;2022-09-09T15:15:03;9.70;;;4.50;;
1360;SDS011;674;45.552;-122.600;2022-09-09T15:17:32;7.77;;;4.13;;
1360;SDS011;674;45.552;-122.600;2022-09-09T15:20:03;11.33;;;3.67;;
1360;SDS011;674;45.552;-122.600;2022-09-09T15:22:33;9.43;;;4.23;;
1360;SDS011;674;45.552;-122.600;2022-09-09T15:25:03;9.37;;;4.13;;
1360;SDS011;674;45.552;-122.600;2022-09-09T15:27:32;9.33;;;4.33;;
1360;SDS011;674;45.552;-122.600;2022-09-09T15:30:01;9.50;;;4.30;;
1360;SDS011;674;45.552;-122.600;2022-09-09T15:32:30;9.67;;;4.27;;
1360;SDS011;674;45.552;-122.600;2022-09-09T15:34:59;13.33;;;4.83;;
1360;SDS011;674;45.552;-122.600;2022-09-09T15:37:28;14.60;;;5.70;;
1360;SDS011;674;45.552;-122.600;2022-09-09T15:39:57;8.57;;;4.70;;
1360;SDS011;674;45.552;-122.600;2022-09-09T15:42:27;9.47;;;3.97;;
1360;SDS011;674;45.552;-122.600;2022-09-09T15:44:57;6.70;;;4.60;;
1360;SDS011;674;45.552;-122.600;2022-09-09T15:47:25;8.97;;;4.07;;
1360;SDS011;674;45.552;-122.600;2022-09-09T15:49:54;7.00;;;4.00;;
1360;SDS011;674;45.552;-122.600;2022-09-09T15:52:23;9.73;;;5.20;;
1360;SDS011;674;45.552;-122.600;2022-09-09T15:54:51;13.93;;;5.53;;
1360;SDS011;674;45.552;-122.600;2022-09-09T15:57:20;14.50;;;6.60;;
1360;SDS011;674;45.552;-122.600;2022-09-09T15:59:48;14.10;;;5.60;;
1360;SDS011;674;45.552;-122.600;2022-09-09T16:02:16;11.73;;;6.43;;
1360;SDS011;674;45.552;-122.600;2022-09-09T16:04:45;7.33;;;4.40;;
1360;SDS011;674;45.552;-122.600;2022-09-09T16:07:13;5.00;;;3.60;;
1360;SDS011;674;45.552;-122.600;2022-09-09T16:09:42;8.60;;;4.20;;
1360;SDS011;674;45.552;-122.600;2022-09-09T16:12:11;10.73;;;4.57;;
1360;SDS011;674;45.552;-122.600;2022-09-09T16:14:40;8.80;;;4.53;;
1360;SDS011;674;45.552;-122.600;2022-09-09T16:17:08;9.40;;;4.73;;
1360;SDS011;674;45.552;-122.600;2022-09-09T16:19:37;7.73;;;4.20;;
1360;SDS011;674;45.552;-122.600;2022-09-09T16:22:05;7.63;;;3.93;;
1360;SDS011;674;45.552;-122.600;2022-09-09T16:24:34;8.70;;;4.00;;
1360;SDS011;674;45.552;-122.600;2022-09-09T16:27:02;10.27;;;5.03;;
1360;SDS011;674;45.552;-122.600;2022-09-09T16:29:31;6.00;;;3.80;;
1360;SDS011;674;45.552;-122.600;2022-09-09T16:31:59;8.03;;;5.33;;
1360;SDS011;674;45.552;-122.600;2022-09-09T16:34:29;10.50;;;6.07;;
1360;SDS011;674;45.552;-122.600;2022-09-09T16:36:58;7.40;;;6.03;;
1360;SDS011;674;45.552;-122.600;2022-09-09T16:39:26;8.10;;;6.33;;
1360;SDS011;674;45.552;-122.600;2022-09-09T16:41:55;5.63;;;5.13;;
1360;SDS011;674;45.552;-122.600;2022-09-09T16:44:24;7.30;;;6.60;;
1360;SDS011;674;45.552;-122.600;2022-09-09T16:46:53;13.60;;;6.10;;
1360;SDS011;674;45.552;-122.600;2022-09-09T16:49:26;8.60;;;5.97;;
1360;SDS011;674;45.552;-122.600;2022-09-09T16:51:57;6.63;;;5.30;;
1360;SDS011;674;45.552;-122.600;2022-09-09T16:54:27;11.83;;;7.00;;
1360;SDS011;674;45.552;-122.600;2022-09-09T16:56:56;10.90;;;7.00;;
1360;SDS011;674;45.552;-122.600;2022-09-09T16:59:24;9.10;;;6.33;;
1360;SDS011;674;45.552;-122.600;2022-09-09T17:01:53;8.30;;;6.47;;
1360;SDS011;674;45.552;-122.600;2022-09-09T17:04:23;13.50;;;6.63;;
1360;SDS011;674;45.552;-122.600;2022-09-09T17:06:55;9.30;;;6.63;;
1360;SDS011;674;45.552;-122.600;2022-09-09T17:09:24;8.20;;;6.00;;
1360;SDS011;674;45.552;-122.600;2022-09-09T17:11:56;7.60;;;6.37;;
1360;SDS011;674;45.552;-122.600;2022-09-09T17:14:24;9.77;;;6.77;;
1360;SDS011;674;45.552;-122.600;2022-09-09T17:16:53;8.80;;;7.90;;
1360;SDS011;674;45.552;-122.600;2022-09-09T17:19:21;9.57;;;6.67;;
1360;SDS011;674;45.552;-122.600;2022-09-09T17:21:49;9.07;;;5.83;;
1360;SDS011;674;45.552;-122.600;2022-09-09T17:24:38;10.17;;;5.70;;
1360;SDS011;674;45.552;-122.600;2022-09-09T17:27:07;12.03;;;6.50;;
1360;SDS011;674;45.552;-122.600;2022-09-09T17:29:36;10.27;;;7.40;;
1360;SDS011;674;45.552;-122.600;2022-09-09T17:32:05;12.60;;;6.80;;
1360;SDS011;674;45.552;-122.600;2022-09-09T17:34:34;9.13;;;7.87;;
1360;SDS011;674;45.552;-122.600;2022-09-09T17:37:03;13.70;;;9.07;;
1360;SDS011;674;45.552;-122.600;2022-09-09T17:39:33;10.07;;;8.50;;
1360;SDS011;674;45.552;-122.600;2022-09-09T17:42:01;13.43;;;9.47;;
1360;SDS011;674;45.552;-122.600;2022-09-09T17:44:30;12.30;;;9.70;;
1360;SDS011;674;45.552;-122.600;2022-09-09T17:46:59;16.70;;;10.10;;
1360;SDS011;674;45.552;-122.600;2022-09-09T17:49:27;14.73;;;11.63;;
1360;SDS011;674;45.552;-122.600;2022-09-09T17:51:56;16.33;;;10.30;;
1360;SDS011;674;45.552;-122.600;2022-09-09T17:54:24;13.80;;;10.50;;
1360;SDS011;674;45.552;-122.600;2022-09-09T17:56:53;14.13;;;11.83;;
1360;SDS011;674;45.552;-122.600;2022-09-09T17:59:21;14.80;;;11.13;;
1360;SDS011;674;45.552;-122.600;2022-09-09T18:01:52;18.80;;;11.33;;